Search METAR Data

METAR Data for ENBL:

ENBL 241150Z 31005KT 260V360 9999 BKN055 04/M05 Q1008